Air Resources Laboratory banner image
Air Resources Laboratory web site National Oceanic and Atmospheric Administration (NOAA)

wa metar


KALW 170653Z AUTO 09008KT 10SM CLR 23/08 A2993 RMK AO2 SLP125 T02330078=
KBFI 170653Z AUTO VRB03KT 10SM CLR 21/13 A3002 RMK AO2 SLP164 T02060133=
KBLI 170653Z AUTO 00000KT 10SM CLR 16/14 A3002 RMK AO2 SLP170 T01560139=
KCLM 170653Z AUTO 00000KT 10SM CLR 16/13 A3004 RMK AO2 SLP172 T01560133=
KDEW 170653Z AUTO 33005KT 10SM CLR 16/09 A3002 RMK AO2 SLP152 T01610089=
KELN 170653Z AUTO 32007KT 10SM CLR 22/13 A2999 RMK AO2 SLP141 T02220128=
KEPH 170653Z AUTO 31005KT 10SM CLR 26/07 A2994 RMK AO2 SLP125 T02560072=
KFHR 170653Z AUTO 00000KT 10SM CLR 13/10 A3003 RMK AO2 SLP169 T01280100 $=
KGEG 170653Z 07007KT 10SM CLR 26/07 A3002 RMK AO2 SLP143 T02560067=
KGRF 170658Z 00000KT 10SM CLR 19/10 A2999 RMK AO2A SLP158 T01910101 $=
KNOW 170655Z AUTO 28009KT 10SM CLR 14/14 A3003 RMK AO2 T01430143 401810120=
KNUW 170653Z 00000KT 10SM FEW250 13/12 A3007 RMK SLP180 T01280117=
KOLM 170654Z 04003KT 10SM CLR 19/11 A3001 RMK AO2 SLP160 T01940106=
KOMK 170653Z AUTO 31003KT 10SM CLR 23/06 A2997 RMK AO2 SLP139 T02280061=
KORS 170655Z AUTO 00000KT 10SM CLR 16/14 A3001 RMK AO2=
KPAE 170653Z AUTO 36005KT 10SM CLR 17/13 A3004 RMK AO2 SLP169 T01670133=
KPSC 170653Z AUTO 35005KT 10SM CLR 20/16 A2989 RMK AO2 SLP116 T02000156=
KPUW 170653Z AUTO 00000KT 10SM CLR 16/04 A3004 RMK AO2 SLP154 T01560039=
KRNT 170653Z 01005KT 10SM CLR 21/13 A3001 RMK AO2 SLP165 T02110128=
KSEA 170653Z 04010KT 10SM CLR 21/12 A3002 RMK AO2 SLP170 T02060122=
KSFF 170653Z AUTO 01003KT 10SM CLR 21/07 A3001 RMK AO2 SLP144 T02110072=
KSHN 170653Z AUTO 00000KT 10SM CLR 16/12 A2999 RMK AO2 SLP154 T01610122=
KSKA 170658Z AUTO 06006KT 10SM CLR 23/06 A3001 RMK AO2 SLP144 T02310059 $=
KSMP 170656Z AUTO 22003KT 10SM CLR 17/12 A3015 RMK AO2 SLP179 T01720122=
KTCM 170658Z AUTO 00000KT 10SM CLR 16/11 A3001 RMK AO2 SLP165 T01620109 $=
KTIW 170653Z AUTO 04007KT 10SM CLR 21/12 A3001 RMK AO2 SLP161 T02060122=
KUIL 170653Z AUTO 34003KT 10SM CLR 16/15 A3004 RMK AO2 SLP171 T01610150 $=
KVUO 170653Z AUTO VRB05KT 10SM CLR 23/13 A2993 RMK AO2 SLP135 T02330133 $=
KYKM 170653Z AUTO 25006KT 10SM CLR 21/11 A2995 RMK AO2 SLP134 T02110106=